This is the latest recevied weather packets stored in our database for station/object KE0FIN. If no packets are shown the sender has not sent any weather packets the latest 10 day(s).
| Time | Temp. | Humidity | Pressure | Rain* | Wind** | Luminosity | Snow |
|---|---|---|---|---|---|---|---|
| 1777692609 | 10.56° C | 79% | 1070.4 hPa | 0 mm | - | 0 W/m² | - |
| 1777692305 | 10.56° C | 79% | 1070.2 hPa | 0 mm | - | 0 W/m² | - |
| 1777692002 | 10.56° C | 79% | 1070.3 hPa | 0 mm | - | 0 W/m² | - |
| 1777691700 | 10.56° C | 78% | 1070.2 hPa | 0 mm | - | 0 W/m² | - |
| 1777691398 | 10.56° C | 78% | 1070.1 hPa | 0 mm | - | 0 W/m² | - |
| 1777691096 | 10.56° C | 77% | 1070.2 hPa | 0 mm | - | 0 W/m² | - |
| 1777690794 | 10.56° C | 76% | 1070.2 hPa | 0 mm | - | 0 W/m² | - |
| 1777690491 | 11.11° C | 75% | 1070.2 hPa | 0 mm | - | 0 W/m² | - |
| 1777690188 | 11.11° C | 74% | 1070 hPa | 0 mm | - | 0 W/m² | - |
| 1777689886 | 11.11° C | 74% | 1069.9 hPa | 0 mm | - | 0 W/m² | - |
| 1777689584 | 11.11° C | 74% | 1069.9 hPa | 0 mm | - | 0 W/m² | - |
| 1777689281 | 11.11° C | 73% | 1069.9 hPa | 0 mm | - | 0 W/m² | - |
| 1777688979 | 11.67° C | 73% | 1069.9 hPa | 0 mm | - | 0 W/m² | - |
| 1777688675 | 11.67° C | 72% | 1069.6 hPa | 0 mm | - | 0 W/m² | - |
| 1777688372 | 11.67° C | 71% | 1069.4 hPa | 0 mm | - | 0 W/m² | - |
| 1777688070 | 11.67° C | 71% | 1069.6 hPa | 0 mm | - | 0 W/m² | - |
| 1777687767 | 12.22° C | 69% | 1069.5 hPa | 0 mm | - | 0 W/m² | - |
| 1777674131 | 15.56° C | 50% | 1068.8 hPa | 0 mm | - | 90 W/m² | - |
| 1777673828 | 16.11° C | 49% | 1068.7 hPa | 0 mm | - | 93 W/m² | - |
| 1777673525 | 16.67° C | 46% | 1068.8 hPa | 0 mm | - | 86 W/m² | - |
| 1777673222 | 17.22° C | 43% | 1068.8 hPa | 0 mm | - | 62 W/m² | - |
| 1777672920 | 17.78° C | 35% | 1068.6 hPa | 0 mm | - | 38 W/m² | - |
| 1777672616 | 18.33° C | 34% | 1068 hPa | 0 mm | - | 37 W/m² | - |
| 1777672311 | 18.89° C | 36% | 1068.1 hPa | 0 mm | - | 31 W/m² | - |
| 1777672007 | 18.89° C | 36% | 1068 hPa | 0 mm | - | 41 W/m² | - |
* Rain latest hour (hover to see other rain measurements)
** Current wind speed in m/s (hover to see current wind gust speed)